sensor_id;sensor_type;location;lat;lon;timestamp;temperature;humidity
31979;DHT22;18502;43.574;1.276;2023-01-15T00:00:51;6.80;99.90
31979;DHT22;18502;43.574;1.276;2023-01-15T00:03:17;6.90;99.90
31979;DHT22;18502;43.574;1.276;2023-01-15T00:05:43;7.20;99.90
31979;DHT22;18502;43.574;1.276;2023-01-15T00:08:09;7.50;99.90
31979;DHT22;18502;43.574;1.276;2023-01-15T00:10:35;7.60;99.90
31979;DHT22;18502;43.574;1.276;2023-01-15T00:13:01;7.50;99.90
31979;DHT22;18502;43.574;1.276;2023-01-15T00:15:26;7.50;99.90
31979;DHT22;18502;43.574;1.276;2023-01-15T00:17:52;7.60;99.90
31979;DHT22;18502;43.574;1.276;2023-01-15T00:20:18;7.50;99.90
31979;DHT22;18502;43.574;1.276;2023-01-15T00:22:43;7.50;99.90
31979;DHT22;18502;43.574;1.276;2023-01-15T00:25:10;7.50;99.90
31979;DHT22;18502;43.574;1.276;2023-01-15T00:27:54;7.40;99.90
31979;DHT22;18502;43.574;1.276;2023-01-15T00:30:20;7.50;99.90
31979;DHT22;18502;43.574;1.276;2023-01-15T00:32:46;7.40;99.90
31979;DHT22;18502;43.574;1.276;2023-01-15T00:35:16;7.40;99.90
31979;DHT22;18502;43.574;1.276;2023-01-15T00:37:42;7.30;99.90
31979;DHT22;18502;43.574;1.276;2023-01-15T00:40:09;7.40;99.90
31979;DHT22;18502;43.574;1.276;2023-01-15T00:42:34;7.50;99.90
31979;DHT22;18502;43.574;1.276;2023-01-15T00:45:00;7.60;99.90
31979;DHT22;18502;43.574;1.276;2023-01-15T00:50:04;7.60;99.90
31979;DHT22;18502;43.574;1.276;2023-01-15T00:52:30;7.50;99.90
31979;DHT22;18502;43.574;1.276;2023-01-15T00:54:56;7.50;99.90
31979;DHT22;18502;43.574;1.276;2023-01-15T00:57:22;7.50;99.90
31979;DHT22;18502;43.574;1.276;2023-01-15T00:59:47;7.40;99.90
31979;DHT22;18502;43.574;1.276;2023-01-15T01:02:13;7.30;99.90
31979;DHT22;18502;43.574;1.276;2023-01-15T01:04:39;7.30;99.90
31979;DHT22;18502;43.574;1.276;2023-01-15T01:07:04;7.20;99.90
31979;DHT22;18502;43.574;1.276;2023-01-15T01:09:30;7.10;99.90
31979;DHT22;18502;43.574;1.276;2023-01-15T01:11:56;7.10;99.90
31979;DHT22;18502;43.574;1.276;2023-01-15T01:14:21;7.00;99.90
31979;DHT22;18502;43.574;1.276;2023-01-15T01:16:47;7.00;99.90
31979;DHT22;18502;43.574;1.276;2023-01-15T01:19:16;7.00;99.90
31979;DHT22;18502;43.574;1.276;2023-01-15T01:21:42;6.90;99.90
31979;DHT22;18502;43.574;1.276;2023-01-15T01:24:19;6.90;99.90
31979;DHT22;18502;43.574;1.276;2023-01-15T01:26:46;6.80;99.90
31979;DHT22;18502;43.574;1.276;2023-01-15T01:29:18;6.70;99.90
31979;DHT22;18502;43.574;1.276;2023-01-15T01:31:44;6.70;99.90
31979;DHT22;18502;43.574;1.276;2023-01-15T01:34:10;6.80;99.90
31979;DHT22;18502;43.574;1.276;2023-01-15T01:36:38;6.60;99.90
31979;DHT22;18502;43.574;1.276;2023-01-15T01:39:06;6.50;99.90
31979;DHT22;18502;43.574;1.276;2023-01-15T01:41:33;6.50;99.90
31979;DHT22;18502;43.574;1.276;2023-01-15T01:44:53;6.40;99.90
31979;DHT22;18502;43.574;1.276;2023-01-15T01:46:52;6.40;99.90
31979;DHT22;18502;43.574;1.276;2023-01-15T01:49:18;6.30;99.90
31979;DHT22;18502;43.574;1.276;2023-01-15T01:51:50;6.20;99.90
31979;DHT22;18502;43.574;1.276;2023-01-15T01:54:20;6.40;99.90
31979;DHT22;18502;43.574;1.276;2023-01-15T01:56:48;6.30;99.90
31979;DHT22;18502;43.574;1.276;2023-01-15T01:59:15;6.20;99.90
31979;DHT22;18502;43.574;1.276;2023-01-15T02:01:41;6.30;99.90
31979;DHT22;18502;43.574;1.276;2023-01-15T02:04:08;6.20;99.90
31979;DHT22;18502;43.574;1.276;2023-01-15T02:06:36;6.30;99.90
31979;DHT22;18502;43.574;1.276;2023-01-15T02:09:04;6.30;99.90
31979;DHT22;18502;43.574;1.276;2023-01-15T02:11:32;6.20;99.90
31979;DHT22;18502;43.574;1.276;2023-01-15T02:17:01;6.40;99.90
31979;DHT22;18502;43.574;1.276;2023-01-15T02:27:20;6.20;99.90
31979;DHT22;18502;43.574;1.276;2023-01-15T02:30:03;6.10;99.90
31979;DHT22;18502;43.574;1.276;2023-01-15T02:32:52;6.20;99.90
31979;DHT22;18502;43.574;1.276;2023-01-15T02:37:49;6.50;99.90
31979;DHT22;18502;43.574;1.276;2023-01-15T02:40:18;6.40;99.90
31979;DHT22;18502;43.574;1.276;2023-01-15T02:42:46;6.30;99.90
31979;DHT22;18502;43.574;1.276;2023-01-15T02:45:16;6.30;99.90
31979;DHT22;18502;43.574;1.276;2023-01-15T02:47:46;6.40;99.90
31979;DHT22;18502;43.574;1.276;2023-01-15T02:50:16;6.30;99.90
31979;DHT22;18502;43.574;1.276;2023-01-15T02:52:46;6.10;99.90
31979;DHT22;18502;43.574;1.276;2023-01-15T02:55:19;6.20;99.90
31979;DHT22;18502;43.574;1.276;2023-01-15T02:57:47;6.10;99.90
31979;DHT22;18502;43.574;1.276;2023-01-15T03:00:15;6.00;99.90
31979;DHT22;18502;43.574;1.276;2023-01-15T03:02:48;6.00;99.90
31979;DHT22;18502;43.574;1.276;2023-01-15T03:05:32;6.00;99.90
31979;DHT22;18502;43.574;1.276;2023-01-15T03:08:02;5.90;99.90
31979;DHT22;18502;43.574;1.276;2023-01-15T03:13:12;5.70;99.90
31979;DHT22;18502;43.574;1.276;2023-01-15T03:15:54;5.60;99.90
31979;DHT22;18502;43.574;1.276;2023-01-15T03:21:18;5.60;99.90
31979;DHT22;18502;43.574;1.276;2023-01-15T03:23:48;5.50;99.90
31979;DHT22;18502;43.574;1.276;2023-01-15T03:26:16;5.40;99.90
31979;DHT22;18502;43.574;1.276;2023-01-15T03:28:42;5.30;99.90
31979;DHT22;18502;43.574;1.276;2023-01-15T03:31:08;5.30;99.90
31979;DHT22;18502;43.574;1.276;2023-01-15T03:33:34;5.30;99.90
31979;DHT22;18502;43.574;1.276;2023-01-15T03:36:00;5.20;99.90
31979;DHT22;18502;43.574;1.276;2023-01-15T03:38:34;5.20;99.90
31979;DHT22;18502;43.574;1.276;2023-01-15T03:52:04;4.90;99.90
31979;DHT22;18502;43.574;1.276;2023-01-15T03:57:33;4.70;99.90
31979;DHT22;18502;43.574;1.276;2023-01-15T04:00:08;4.60;99.90
31979;DHT22;18502;43.574;1.276;2023-01-15T04:02:36;4.60;99.90
31979;DHT22;18502;43.574;1.276;2023-01-15T04:05:02;4.60;99.90
31979;DHT22;18502;43.574;1.276;2023-01-15T04:07:29;4.60;99.90
31979;DHT22;18502;43.574;1.276;2023-01-15T04:09:56;4.50;99.90
31979;DHT22;18502;43.574;1.276;2023-01-15T04:12:21;4.50;99.90
31979;DHT22;18502;43.574;1.276;2023-01-15T04:14:47;4.50;99.90
31979;DHT22;18502;43.574;1.276;2023-01-15T04:17:13;4.50;99.90
31979;DHT22;18502;43.574;1.276;2023-01-15T04:19:38;4.50;99.90
31979;DHT22;18502;43.574;1.276;2023-01-15T04:22:04;4.40;99.90
31979;DHT22;18502;43.574;1.276;2023-01-15T04:24:30;4.40;99.90
31979;DHT22;18502;43.574;1.276;2023-01-15T04:26:55;4.60;99.90
31979;DHT22;18502;43.574;1.276;2023-01-15T04:29:21;4.60;99.90
31979;DHT22;18502;43.574;1.276;2023-01-15T04:31:47;4.70;99.90
31979;DHT22;18502;43.574;1.276;2023-01-15T04:34:13;4.60;99.90
31979;DHT22;18502;43.574;1.276;2023-01-15T04:36:38;4.50;99.90
31979;DHT22;18502;43.574;1.276;2023-01-15T04:39:04;4.60;99.90
31979;DHT22;18502;43.574;1.276;2023-01-15T04:41:30;4.60;99.90
31979;DHT22;18502;43.574;1.276;2023-01-15T04:44:14;4.60;99.90
31979;DHT22;18502;43.574;1.276;2023-01-15T04:46:43;4.50;99.90
31979;DHT22;18502;43.574;1.276;2023-01-15T04:49:12;4.60;99.90
31979;DHT22;18502;43.574;1.276;2023-01-15T04:51:38;4.50;99.90
31979;DHT22;18502;43.574;1.276;2023-01-15T04:54:06;4.60;99.90
31979;DHT22;18502;43.574;1.276;2023-01-15T04:56:35;4.60;99.90
31979;DHT22;18502;43.574;1.276;2023-01-15T04:59:02;4.40;99.90
31979;DHT22;18502;43.574;1.276;2023-01-15T05:01:27;4.40;99.90
31979;DHT22;18502;43.574;1.276;2023-01-15T05:03:53;4.40;99.90
31979;DHT22;18502;43.574;1.276;2023-01-15T05:06:19;4.40;99.90
31979;DHT22;18502;43.574;1.276;2023-01-15T05:08:44;4.30;99.90
31979;DHT22;18502;43.574;1.276;2023-01-15T05:11:11;4.20;99.90
31979;DHT22;18502;43.574;1.276;2023-01-15T05:13:36;4.20;99.90
31979;DHT22;18502;43.574;1.276;2023-01-15T05:16:17;4.10;99.90
31979;DHT22;18502;43.574;1.276;2023-01-15T05:18:44;4.10;99.90
31979;DHT22;18502;43.574;1.276;2023-01-15T05:21:30;4.10;99.90
31979;DHT22;18502;43.574;1.276;2023-01-15T05:23:57;4.10;99.90
31979;DHT22;18502;43.574;1.276;2023-01-15T05:26:25;4.00;99.90
31979;DHT22;18502;43.574;1.276;2023-01-15T05:28:56;4.00;99.90
31979;DHT22;18502;43.574;1.276;2023-01-15T05:31:22;4.10;99.90
31979;DHT22;18502;43.574;1.276;2023-01-15T05:33:49;4.40;99.90
31979;DHT22;18502;43.574;1.276;2023-01-15T05:36:23;4.50;99.90
31979;DHT22;18502;43.574;1.276;2023-01-15T05:38:49;4.60;99.90
31979;DHT22;18502;43.574;1.276;2023-01-15T05:41:17;4.70;99.90
31979;DHT22;18502;43.574;1.276;2023-01-15T05:44:04;4.80;99.90
31979;DHT22;18502;43.574;1.276;2023-01-15T05:46:30;4.90;99.90
31979;DHT22;18502;43.574;1.276;2023-01-15T05:49:01;5.00;99.90
31979;DHT22;18502;43.574;1.276;2023-01-15T05:51:27;4.80;99.90
31979;DHT22;18502;43.574;1.276;2023-01-15T05:53:54;4.80;99.90
31979;DHT22;18502;43.574;1.276;2023-01-15T05:56:21;5.10;99.90
31979;DHT22;18502;43.574;1.276;2023-01-15T05:58:46;5.40;99.90
31979;DHT22;18502;43.574;1.276;2023-01-15T06:01:12;5.50;99.90
31979;DHT22;18502;43.574;1.276;2023-01-15T06:03:38;5.60;99.90
31979;DHT22;18502;43.574;1.276;2023-01-15T06:06:05;5.70;99.90
31979;DHT22;18502;43.574;1.276;2023-01-15T06:08:30;5.70;99.90
31979;DHT22;18502;43.574;1.276;2023-01-15T06:10:56;5.60;99.90
31979;DHT22;18502;43.574;1.276;2023-01-15T06:13:22;5.60;99.90
31979;DHT22;18502;43.574;1.276;2023-01-15T06:15:47;5.70;99.90
31979;DHT22;18502;43.574;1.276;2023-01-15T06:18:13;5.70;99.90
31979;DHT22;18502;43.574;1.276;2023-01-15T06:20:40;5.80;99.90
31979;DHT22;18502;43.574;1.276;2023-01-15T06:23:07;5.80;99.90
31979;DHT22;18502;43.574;1.276;2023-01-15T06:25:36;6.10;99.90
31979;DHT22;18502;43.574;1.276;2023-01-15T06:28:06;6.60;99.90
31979;DHT22;18502;43.574;1.276;2023-01-15T06:30:33;7.10;99.90
31979;DHT22;18502;43.574;1.276;2023-01-15T06:32:59;7.40;99.90
31979;DHT22;18502;43.574;1.276;2023-01-15T06:35:25;7.50;99.90
31979;DHT22;18502;43.574;1.276;2023-01-15T06:37:51;7.60;99.90
31979;DHT22;18502;43.574;1.276;2023-01-15T06:40:17;7.50;99.90
31979;DHT22;18502;43.574;1.276;2023-01-15T06:42:43;7.50;99.90
31979;DHT22;18502;43.574;1.276;2023-01-15T06:45:31;7.60;99.90
31979;DHT22;18502;43.574;1.276;2023-01-15T06:48:16;7.80;99.90
31979;DHT22;18502;43.574;1.276;2023-01-15T06:50:43;7.90;99.90
31979;DHT22;18502;43.574;1.276;2023-01-15T06:53:09;7.90;99.90
31979;DHT22;18502;43.574;1.276;2023-01-15T06:55:35;8.00;99.90
31979;DHT22;18502;43.574;1.276;2023-01-15T06:58:02;8.00;99.90
31979;DHT22;18502;43.574;1.276;2023-01-15T07:00:28;7.90;99.90
31979;DHT22;18502;43.574;1.276;2023-01-15T07:02:54;7.80;99.90
31979;DHT22;18502;43.574;1.276;2023-01-15T07:05:19;7.70;99.90
31979;DHT22;18502;43.574;1.276;2023-01-15T07:07:45;7.60;99.90
31979;DHT22;18502;43.574;1.276;2023-01-15T07:10:11;7.60;99.90
31979;DHT22;18502;43.574;1.276;2023-01-15T07:12:36;7.60;99.90
31979;DHT22;18502;43.574;1.276;2023-01-15T07:15:02;7.60;99.90
31979;DHT22;18502;43.574;1.276;2023-01-15T07:17:28;7.70;99.90
31979;DHT22;18502;43.574;1.276;2023-01-15T07:19:53;7.90;99.90
31979;DHT22;18502;43.574;1.276;2023-01-15T07:22:19;7.90;99.90
31979;DHT22;18502;43.574;1.276;2023-01-15T07:24:45;7.80;99.90
31979;DHT22;18502;43.574;1.276;2023-01-15T07:27:10;7.80;99.90
31979;DHT22;18502;43.574;1.276;2023-01-15T07:29:36;7.70;99.90
31979;DHT22;18502;43.574;1.276;2023-01-15T07:32:02;7.60;99.90
31979;DHT22;18502;43.574;1.276;2023-01-15T07:34:28;7.60;99.90
31979;DHT22;18502;43.574;1.276;2023-01-15T07:36:53;7.60;99.90
31979;DHT22;18502;43.574;1.276;2023-01-15T07:39:19;7.60;99.90
31979;DHT22;18502;43.574;1.276;2023-01-15T07:41:45;7.60;99.90
31979;DHT22;18502;43.574;1.276;2023-01-15T07:44:29;7.50;99.90
31979;DHT22;18502;43.574;1.276;2023-01-15T07:47:21;7.50;99.90
31979;DHT22;18502;43.574;1.276;2023-01-15T07:50:09;7.50;99.90
31979;DHT22;18502;43.574;1.276;2023-01-15T07:52:35;7.50;99.90
31979;DHT22;18502;43.574;1.276;2023-01-15T07:55:01;7.50;99.90
31979;DHT22;18502;43.574;1.276;2023-01-15T07:57:28;7.50;99.90
31979;DHT22;18502;43.574;1.276;2023-01-15T07:59:54;7.50;99.90
31979;DHT22;18502;43.574;1.276;2023-01-15T08:02:20;7.50;99.90
31979;DHT22;18502;43.574;1.276;2023-01-15T08:04:45;7.50;99.90
31979;DHT22;18502;43.574;1.276;2023-01-15T08:07:13;7.50;99.90
31979;DHT22;18502;43.574;1.276;2023-01-15T08:09:39;7.50;99.90
31979;DHT22;18502;43.574;1.276;2023-01-15T08:12:05;7.50;99.90
31979;DHT22;18502;43.574;1.276;2023-01-15T08:14:49;7.60;99.90
31979;DHT22;18502;43.574;1.276;2023-01-15T08:17:34;7.60;99.90
31979;DHT22;18502;43.574;1.276;2023-01-15T08:20:04;7.60;99.90
31979;DHT22;18502;43.574;1.276;2023-01-15T08:22:30;7.60;99.90
31979;DHT22;18502;43.574;1.276;2023-01-15T08:24:56;7.70;99.90
31979;DHT22;18502;43.574;1.276;2023-01-15T08:27:22;7.70;99.90
31979;DHT22;18502;43.574;1.276;2023-01-15T08:29:48;7.70;99.90
31979;DHT22;18502;43.574;1.276;2023-01-15T08:32:14;7.70;99.90
31979;DHT22;18502;43.574;1.276;2023-01-15T08:34:39;7.80;99.90
31979;DHT22;18502;43.574;1.276;2023-01-15T08:37:05;7.80;99.90
31979;DHT22;18502;43.574;1.276;2023-01-15T08:39:31;7.80;99.90
31979;DHT22;18502;43.574;1.276;2023-01-15T08:41:57;7.80;99.90
31979;DHT22;18502;43.574;1.276;2023-01-15T08:44:23;7.80;99.90
31979;DHT22;18502;43.574;1.276;2023-01-15T08:46:51;7.90;99.90
31979;DHT22;18502;43.574;1.276;2023-01-15T08:49:18;7.90;99.90
31979;DHT22;18502;43.574;1.276;2023-01-15T08:51:44;7.80;99.90
31979;DHT22;18502;43.574;1.276;2023-01-15T08:54:11;7.90;99.90
31979;DHT22;18502;43.574;1.276;2023-01-15T08:56:37;7.90;99.90
31979;DHT22;18502;43.574;1.276;2023-01-15T08:59:04;7.90;99.90
31979;DHT22;18502;43.574;1.276;2023-01-15T09:01:30;8.00;99.90
31979;DHT22;18502;43.574;1.276;2023-01-15T09:03:56;8.00;99.90
31979;DHT22;18502;43.574;1.276;2023-01-15T09:06:23;8.00;99.90
31979;DHT22;18502;43.574;1.276;2023-01-15T09:08:49;8.00;99.90
31979;DHT22;18502;43.574;1.276;2023-01-15T09:11:14;8.10;99.90
31979;DHT22;18502;43.574;1.276;2023-01-15T09:13:40;8.10;99.90
31979;DHT22;18502;43.574;1.276;2023-01-15T09:16:06;8.30;99.90
31979;DHT22;18502;43.574;1.276;2023-01-15T09:18:36;8.50;99.90
31979;DHT22;18502;43.574;1.276;2023-01-15T09:21:06;8.50;99.90
31979;DHT22;18502;43.574;1.276;2023-01-15T09:23:32;8.50;99.90
31979;DHT22;18502;43.574;1.276;2023-01-15T09:26:00;8.40;99.90
31979;DHT22;18502;43.574;1.276;2023-01-15T09:28:28;8.50;99.90
31979;DHT22;18502;43.574;1.276;2023-01-15T09:30:54;8.30;99.90
31979;DHT22;18502;43.574;1.276;2023-01-15T09:33:19;8.10;99.90
31979;DHT22;18502;43.574;1.276;2023-01-15T09:35:46;7.90;99.90
31979;DHT22;18502;43.574;1.276;2023-01-15T09:38:13;7.80;99.90
31979;DHT22;18502;43.574;1.276;2023-01-15T09:40:54;7.80;99.90
31979;DHT22;18502;43.574;1.276;2023-01-15T09:46:31;7.70;99.90
31979;DHT22;18502;43.574;1.276;2023-01-15T09:49:25;7.50;99.90
31979;DHT22;18502;43.574;1.276;2023-01-15T09:57:22;7.30;99.90
31979;DHT22;18502;43.574;1.276;2023-01-15T09:59:51;7.30;99.90
31979;DHT22;18502;43.574;1.276;2023-01-15T10:04:48;7.30;99.90
31979;DHT22;18502;43.574;1.276;2023-01-15T10:07:22;7.30;99.90
31979;DHT22;18502;43.574;1.276;2023-01-15T10:10:00;7.40;99.90
31979;DHT22;18502;43.574;1.276;2023-01-15T10:12:29;7.40;99.90
31979;DHT22;18502;43.574;1.276;2023-01-15T10:17:44;7.40;99.90
31979;DHT22;18502;43.574;1.276;2023-01-15T10:20:38;7.40;99.90
31979;DHT22;18502;43.574;1.276;2023-01-15T10:25:56;7.50;99.90
31979;DHT22;18502;43.574;1.276;2023-01-15T10:28:29;7.60;99.90
31979;DHT22;18502;43.574;1.276;2023-01-15T10:31:05;7.70;99.90
31979;DHT22;18502;43.574;1.276;2023-01-15T10:36:53;8.20;99.90
31979;DHT22;18502;43.574;1.276;2023-01-15T10:39:32;8.40;99.90
31979;DHT22;18502;43.574;1.276;2023-01-15T10:47:37;8.80;99.90
31979;DHT22;18502;43.574;1.276;2023-01-15T10:50:21;8.60;99.90
31979;DHT22;18502;43.574;1.276;2023-01-15T10:53:01;8.40;99.90
31979;DHT22;18502;43.574;1.276;2023-01-15T11:00:55;8.30;99.90
31979;DHT22;18502;43.574;1.276;2023-01-15T11:03:38;8.40;99.90
31979;DHT22;18502;43.574;1.276;2023-01-15T11:06:07;8.70;99.90
31979;DHT22;18502;43.574;1.276;2023-01-15T11:08:36;8.70;99.90
31979;DHT22;18502;43.574;1.276;2023-01-15T11:11:37;9.20;99.90
31979;DHT22;18502;43.574;1.276;2023-01-15T11:14:42;9.50;99.90
31979;DHT22;18502;43.574;1.276;2023-01-15T11:17:42;9.70;99.90
31979;DHT22;18502;43.574;1.276;2023-01-15T11:20:44;9.50;99.90
31979;DHT22;18502;43.574;1.276;2023-01-15T11:23:14;9.40;99.90
31979;DHT22;18502;43.574;1.276;2023-01-15T11:25:57;9.70;99.90
31979;DHT22;18502;43.574;1.276;2023-01-15T11:28:40;9.60;99.90
31979;DHT22;18502;43.574;1.276;2023-01-15T11:31:09;9.80;99.90
31979;DHT22;18502;43.574;1.276;2023-01-15T11:33:36;9.50;99.90
31979;DHT22;18502;43.574;1.276;2023-01-15T11:36:18;9.60;99.90
31979;DHT22;18502;43.574;1.276;2023-01-15T11:38:46;9.90;99.90
31979;DHT22;18502;43.574;1.276;2023-01-15T11:41:27;10.70;99.90
31979;DHT22;18502;43.574;1.276;2023-01-15T11:44:21;10.30;99.90
31979;DHT22;18502;43.574;1.276;2023-01-15T11:47:13;10.40;99.90
31979;DHT22;18502;43.574;1.276;2023-01-15T11:49:57;11.20;99.90
31979;DHT22;18502;43.574;1.276;2023-01-15T11:52:45;11.70;99.60
31979;DHT22;18502;43.574;1.276;2023-01-15T11:55:20;11.90;98.50
31979;DHT22;18502;43.574;1.276;2023-01-15T11:57:48;11.80;98.90
31979;DHT22;18502;43.574;1.276;2023-01-15T12:00:29;11.50;97.80
31979;DHT22;18502;43.574;1.276;2023-01-15T12:03:02;11.00;98.70
31979;DHT22;18502;43.574;1.276;2023-01-15T12:05:31;11.00;99.90
31979;DHT22;18502;43.574;1.276;2023-01-15T12:08:03;11.00;98.30
31979;DHT22;18502;43.574;1.276;2023-01-15T12:10:45;11.10;98.40
31979;DHT22;18502;43.574;1.276;2023-01-15T12:33:42;11.30;93.60
31979;DHT22;18502;43.574;1.276;2023-01-15T12:38:46;11.00;94.40
31979;DHT22;18502;43.574;1.276;2023-01-15T12:41:37;10.90;94.90
31979;DHT22;18502;43.574;1.276;2023-01-15T12:44:39;10.50;94.90
31979;DHT22;18502;43.574;1.276;2023-01-15T12:50:28;9.90;95.60
31979;DHT22;18502;43.574;1.276;2023-01-15T12:55:30;9.60;95.70
31979;DHT22;18502;43.574;1.276;2023-01-15T12:58:01;9.60;96.30
31979;DHT22;18502;43.574;1.276;2023-01-15T13:00:32;9.60;97.00
31979;DHT22;18502;43.574;1.276;2023-01-15T13:03:14;9.80;98.30
31979;DHT22;18502;43.574;1.276;2023-01-15T13:05:52;9.70;97.50
31979;DHT22;18502;43.574;1.276;2023-01-15T13:08:40;9.60;98.20
31979;DHT22;18502;43.574;1.276;2023-01-15T13:11:12;9.60;98.30
31979;DHT22;18502;43.574;1.276;2023-01-15T13:13:39;9.50;98.50
31979;DHT22;18502;43.574;1.276;2023-01-15T13:16:19;9.50;98.30
31979;DHT22;18502;43.574;1.276;2023-01-15T13:21:33;9.70;98.50
31979;DHT22;18502;43.574;1.276;2023-01-15T13:32:23;9.90;97.50
31979;DHT22;18502;43.574;1.276;2023-01-15T13:35:04;9.90;97.70
31979;DHT22;18502;43.574;1.276;2023-01-15T13:37:45;9.90;97.50
31979;DHT22;18502;43.574;1.276;2023-01-15T13:40:32;9.80;98.10
31979;DHT22;18502;43.574;1.276;2023-01-15T13:43:01;9.50;98.60
31979;DHT22;18502;43.574;1.276;2023-01-15T13:45:41;9.30;96.10
31979;DHT22;18502;43.574;1.276;2023-01-15T13:48:41;9.20;95.50
31979;DHT22;18502;43.574;1.276;2023-01-15T13:51:28;9.00;94.70
31979;DHT22;18502;43.574;1.276;2023-01-15T13:53:56;8.80;95.20
31979;DHT22;18502;43.574;1.276;2023-01-15T13:56:28;8.80;95.40
31979;DHT22;18502;43.574;1.276;2023-01-15T14:01:33;8.80;95.10
31979;DHT22;18502;43.574;1.276;2023-01-15T14:06:46;8.80;95.40
31979;DHT22;18502;43.574;1.276;2023-01-15T14:15:12;9.40;94.90
31979;DHT22;18502;43.574;1.276;2023-01-15T14:20:59;9.90;93.80
31979;DHT22;18502;43.574;1.276;2023-01-15T14:23:49;10.10;93.80
31979;DHT22;18502;43.574;1.276;2023-01-15T14:26:24;10.30;93.70
31979;DHT22;18502;43.574;1.276;2023-01-15T14:29:01;10.30;93.80
31979;DHT22;18502;43.574;1.276;2023-01-15T14:34:32;9.90;95.30
31979;DHT22;18502;43.574;1.276;2023-01-15T14:37:23;9.50;95.50
31979;DHT22;18502;43.574;1.276;2023-01-15T14:39:55;9.10;96.50
31979;DHT22;18502;43.574;1.276;2023-01-15T14:45:13;8.90;96.50
31979;DHT22;18502;43.574;1.276;2023-01-15T14:47:49;9.30;99.90
31979;DHT22;18502;43.574;1.276;2023-01-15T14:52:51;9.50;96.00
31979;DHT22;18502;43.574;1.276;2023-01-15T14:55:19;9.70;95.50
31979;DHT22;18502;43.574;1.276;2023-01-15T14:57:55;9.50;95.20
31979;DHT22;18502;43.574;1.276;2023-01-15T15:00:28;9.90;95.00
31979;DHT22;18502;43.574;1.276;2023-01-15T15:02:54;12.10;92.80
31979;DHT22;18502;43.574;1.276;2023-01-15T15:05:21;13.90;87.00
31979;DHT22;18502;43.574;1.276;2023-01-15T15:07:50;14.30;81.20
31979;DHT22;18502;43.574;1.276;2023-01-15T15:10:32;13.10;80.10
31979;DHT22;18502;43.574;1.276;2023-01-15T15:18:37;13.50;77.80
31979;DHT22;18502;43.574;1.276;2023-01-15T15:29:12;15.00;72.80
31979;DHT22;18502;43.574;1.276;2023-01-15T15:31:42;13.40;75.20
31979;DHT22;18502;43.574;1.276;2023-01-15T15:34:31;13.90;75.90
31979;DHT22;18502;43.574;1.276;2023-01-15T15:37:04;13.50;76.80
31979;DHT22;18502;43.574;1.276;2023-01-15T15:42:00;13.70;75.90
31979;DHT22;18502;43.574;1.276;2023-01-15T15:47:41;13.20;76.80
31979;DHT22;18502;43.574;1.276;2023-01-15T15:50:28;12.70;78.90
31979;DHT22;18502;43.574;1.276;2023-01-15T15:52:58;12.20;80.20
31979;DHT22;18502;43.574;1.276;2023-01-15T15:55:26;11.40;82.70
31979;DHT22;18502;43.574;1.276;2023-01-15T15:57:58;10.40;86.30
31979;DHT22;18502;43.574;1.276;2023-01-15T16:00:32;9.50;90.50
31979;DHT22;18502;43.574;1.276;2023-01-15T16:03:03;8.90;92.20
31979;DHT22;18502;43.574;1.276;2023-01-15T16:05:30;8.60;93.20
31979;DHT22;18502;43.574;1.276;2023-01-15T16:08:17;8.50;93.90
31979;DHT22;18502;43.574;1.276;2023-01-15T16:10:48;8.30;94.40
31979;DHT22;18502;43.574;1.276;2023-01-15T16:13:42;8.20;94.90
31979;DHT22;18502;43.574;1.276;2023-01-15T16:16:09;8.00;95.90
31979;DHT22;18502;43.574;1.276;2023-01-15T16:18:38;7.90;96.80
31979;DHT22;18502;43.574;1.276;2023-01-15T16:21:07;7.90;97.10
31979;DHT22;18502;43.574;1.276;2023-01-15T16:23:33;7.70;97.60
31979;DHT22;18502;43.574;1.276;2023-01-15T16:26:13;7.60;98.00
31979;DHT22;18502;43.574;1.276;2023-01-15T16:28:43;7.50;98.60
31979;DHT22;18502;43.574;1.276;2023-01-15T16:31:12;7.50;98.80
31979;DHT22;18502;43.574;1.276;2023-01-15T16:33:39;7.40;99.20
31979;DHT22;18502;43.574;1.276;2023-01-15T16:36:06;7.40;99.50
31979;DHT22;18502;43.574;1.276;2023-01-15T16:38:40;7.30;99.80
31979;DHT22;18502;43.574;1.276;2023-01-15T16:41:20;7.20;99.90
31979;DHT22;18502;43.574;1.276;2023-01-15T16:43:57;7.30;99.90
31979;DHT22;18502;43.574;1.276;2023-01-15T16:46:27;7.20;99.90
31979;DHT22;18502;43.574;1.276;2023-01-15T16:49:32;7.00;99.90
31979;DHT22;18502;43.574;1.276;2023-01-15T16:52:00;7.20;99.90
31979;DHT22;18502;43.574;1.276;2023-01-15T17:02:15;6.80;96.40
31979;DHT22;18502;43.574;1.276;2023-01-15T17:04:45;6.80;95.20
31979;DHT22;18502;43.574;1.276;2023-01-15T17:09:52;6.60;95.50
31979;DHT22;18502;43.574;1.276;2023-01-15T17:12:28;6.50;95.10
31979;DHT22;18502;43.574;1.276;2023-01-15T17:17:48;6.40;94.90
31979;DHT22;18502;43.574;1.276;2023-01-15T17:20:15;6.30;95.10
31979;DHT22;18502;43.574;1.276;2023-01-15T17:22:45;6.30;95.40
31979;DHT22;18502;43.574;1.276;2023-01-15T17:25:25;6.20;95.50
31979;DHT22;18502;43.574;1.276;2023-01-15T17:27:52;6.10;95.50
31979;DHT22;18502;43.574;1.276;2023-01-15T17:30:19;6.30;95.00
31979;DHT22;18502;43.574;1.276;2023-01-15T17:32:45;6.20;95.30
31979;DHT22;18502;43.574;1.276;2023-01-15T17:37:49;6.20;95.80
31979;DHT22;18502;43.574;1.276;2023-01-15T17:40:15;6.30;95.90
31979;DHT22;18502;43.574;1.276;2023-01-15T17:42:41;6.40;99.90
31979;DHT22;18502;43.574;1.276;2023-01-15T17:45:27;6.00;99.90
31979;DHT22;18502;43.574;1.276;2023-01-15T17:47:53;6.00;99.90
31979;DHT22;18502;43.574;1.276;2023-01-15T17:50:19;6.10;99.90
31979;DHT22;18502;43.574;1.276;2023-01-15T17:52:46;5.80;99.90
31979;DHT22;18502;43.574;1.276;2023-01-15T17:55:14;5.60;99.90
31979;DHT22;18502;43.574;1.276;2023-01-15T17:57:59;5.50;99.90
31979;DHT22;18502;43.574;1.276;2023-01-15T18:00:43;5.30;99.90
31979;DHT22;18502;43.574;1.276;2023-01-15T18:03:28;5.30;99.90
31979;DHT22;18502;43.574;1.276;2023-01-15T18:06:14;5.30;99.90
31979;DHT22;18502;43.574;1.276;2023-01-15T18:08:43;5.20;99.90
31979;DHT22;18502;43.574;1.276;2023-01-15T18:11:10;5.20;99.90
31979;DHT22;18502;43.574;1.276;2023-01-15T18:13:36;5.30;99.90
31979;DHT22;18502;43.574;1.276;2023-01-15T18:16:01;5.40;99.90
31979;DHT22;18502;43.574;1.276;2023-01-15T18:18:27;5.40;99.90
31979;DHT22;18502;43.574;1.276;2023-01-15T18:20:53;5.50;99.90
31979;DHT22;18502;43.574;1.276;2023-01-15T18:23:18;5.50;99.90
31979;DHT22;18502;43.574;1.276;2023-01-15T18:25:44;5.40;99.90
31979;DHT22;18502;43.574;1.276;2023-01-15T18:28:13;5.40;99.90
31979;DHT22;18502;43.574;1.276;2023-01-15T18:30:40;5.50;99.90
31979;DHT22;18502;43.574;1.276;2023-01-15T18:33:06;5.60;99.90
31979;DHT22;18502;43.574;1.276;2023-01-15T18:35:32;5.50;99.90
31979;DHT22;18502;43.574;1.276;2023-01-15T18:37:58;5.50;99.90
31979;DHT22;18502;43.574;1.276;2023-01-15T18:40:23;5.50;99.90
31979;DHT22;18502;43.574;1.276;2023-01-15T18:42:56;5.50;99.90
31979;DHT22;18502;43.574;1.276;2023-01-15T18:45:44;5.50;99.90
31979;DHT22;18502;43.574;1.276;2023-01-15T18:48:28;5.40;99.90
31979;DHT22;18502;43.574;1.276;2023-01-15T18:50:54;5.60;99.90
31979;DHT22;18502;43.574;1.276;2023-01-15T18:53:20;5.60;99.90